Time;durP1;ratioP1;P1;durP2;ratioP2;P2;SDS_P1;SDS_P2;PMS_P1;PMS_P2;Temp;Humidity;BMP_temperature;BMP_pressure;BME280_temperature;BME280_humidity;BME280_pressure;Samples;Min_cycle;Max_cycle;Signal;HPM_P1;HPM_P2
2022/07/31 00:02:22;;;;;;;5.25;2.63;;;11.70;99.90;;;;;;4945966;28;20125;-79
2022/07/31 00:04:50;;;;;;;5.00;2.35;;;11.50;99.90;;;;;;4947011;28;20020;-79
2022/07/31 00:07:17;;;;;;;6.47;2.47;;;11.60;99.90;;;;;;4951193;29;20516;-80
2022/07/31 00:09:44;;;;;;;6.75;3.10;;;11.80;99.90;;;;;;4949819;29;20653;-79
2022/07/31 00:12:12;;;;;;;5.40;3.15;;;12.10;99.90;;;;;;4949799;28;20035;-79
2022/07/31 00:14:39;;;;;;;3.25;2.22;;;12.20;99.90;;;;;;4943887;29;20042;-79
2022/07/31 00:17:06;;;;;;;4.20;2.17;;;12.30;99.90;;;;;;4951684;29;20091;-79
2022/07/31 00:19:34;;;;;;;5.35;2.70;;;12.30;99.90;;;;;;4930664;29;20138;-79
2022/07/31 00:22:01;;;;;;;7.50;2.13;;;12.50;99.90;;;;;;4951952;29;20537;-79
2022/07/31 00:24:29;;;;;;;7.30;3.10;;;12.60;99.90;;;;;;4937351;28;20046;-79
2022/07/31 00:26:56;;;;;;;3.50;2.83;;;12.70;99.90;;;;;;4951387;28;20454;-80
2022/07/31 00:29:24;;;;;;;4.72;2.75;;;13.20;99.90;;;;;;4949592;29;20055;-80
2022/07/31 00:31:51;;;;;;;4.82;2.08;;;14.10;99.90;;;;;;4948010;29;20031;-79
2022/07/31 00:34:18;;;;;;;4.18;1.67;;;14.60;99.90;;;;;;4934762;29;20513;-81
2022/07/31 00:36:46;;;;;;;2.78;1.60;;;15.10;99.80;;;;;;4945627;29;20375;-80
2022/07/31 00:39:13;;;;;;;4.55;2.42;;;15.30;98.60;;;;;;4943006;28;20039;-87
2022/07/31 00:41:42;;;;;;;6.47;3.00;;;15.60;98.40;;;;;;4945209;29;20024;-84
2022/07/31 00:44:12;;;;;;;4.35;2.38;;;15.80;97.70;;;;;;4941547;29;20122;-85
2022/07/31 00:46:40;;;;;;;4.97;2.55;;;16.00;97.50;;;;;;4950264;28;20059;-84
2022/07/31 00:49:09;;;;;;;3.05;1.83;;;16.20;97.00;;;;;;4949890;28;20106;-86
2022/07/31 00:51:38;;;;;;;3.63;2.00;;;16.40;96.80;;;;;;4944929;28;20032;-85
2022/07/31 00:54:09;;;;;;;2.75;2.08;;;16.60;95.80;;;;;;4942882;29;20339;-85
2022/07/31 00:56:37;;;;;;;2.85;2.10;;;16.90;95.90;;;;;;4950241;29;20043;-88
2022/07/31 00:59:05;;;;;;;3.95;2.15;;;17.40;95.90;;;;;;4950056;29;20055;-83
2022/07/31 01:01:32;;;;;;;4.45;2.58;;;17.70;95.50;;;;;;4951501;29;20344;-85
2022/07/31 01:04:00;;;;;;;5.65;2.38;;;18.30;95.30;;;;;;4939816;29;20035;-85
2022/07/31 01:06:27;;;;;;;2.70;2.13;;;18.70;94.50;;;;;;4942514;28;20031;-81
2022/07/31 01:08:55;;;;;;;4.75;2.30;;;18.70;94.30;;;;;;4940776;29;20046;-81
2022/07/31 01:11:27;;;;;;;4.57;2.80;;;18.90;94.10;;;;;;4941495;29;20039;-80
2022/07/31 01:14:01;;;;;;;2.38;1.80;;;19.30;93.60;;;;;;4945702;29;20023;-81
2022/07/31 01:16:33;;;;;;;2.83;2.10;;;19.50;93.10;;;;;;4943080;28;20118;-85
2022/07/31 01:19:11;;;;;;;7.13;2.35;;;19.60;92.90;;;;;;4944475;29;20031;-85
2022/07/31 01:22:08;;;;;;;3.33;1.60;;;19.70;92.90;;;;;;4947813;29;20023;-83
2022/07/31 01:25:03;;;;;;;3.75;1.60;;;19.80;92.80;;;;;;4941589;29;20118;-84
2022/07/31 01:27:59;;;;;;;5.47;1.55;;;19.70;92.90;;;;;;4948886;29;20086;-84
2022/07/31 01:30:32;;;;;;;3.75;1.30;;;19.70;92.70;;;;;;4944822;29;20608;-79
2022/07/31 01:33:05;;;;;;;2.70;0.90;;;19.80;92.60;;;;;;4944904;29;20074;-84
2022/07/31 01:35:47;;;;;;;1.63;0.90;;;19.90;92.50;;;;;;4944998;29;20517;-85
2022/07/31 01:38:22;;;;;;;3.85;0.77;;;19.80;92.00;;;;;;4942818;29;20039;-84
2022/07/31 01:41:04;;;;;;;4.00;0.90;;;19.70;92.10;;;;;;4938710;29;20032;-83
2022/07/31 01:43:40;;;;;;;2.97;0.90;;;19.90;92.10;;;;;;4945971;29;20035;-84
2022/07/31 01:46:14;;;;;;;3.00;0.70;;;20.60;90.60;;;;;;4945082;29;20027;-80
2022/07/31 01:48:42;;;;;;;2.97;0.70;;;21.10;90.20;;;;;;4944948;28;20474;-86
2022/07/31 01:51:11;;;;;;;4.18;0.80;;;20.90;90.00;;;;;;4946826;29;20098;-85
2022/07/31 01:53:40;;;;;;;3.90;1.83;;;21.20;89.10;;;;;;4944659;29;20302;-86
2022/07/31 01:56:08;;;;;;;3.08;0.93;;;21.30;87.60;;;;;;4942919;29;20050;-81
2022/07/31 01:58:41;;;;;;;2.22;0.82;;;20.70;88.10;;;;;;4944774;29;20079;-85
2022/07/31 02:01:09;;;;;;;5.03;1.08;;;20.30;90.70;;;;;;4946284;29;20091;-85
2022/07/31 02:03:39;;;;;;;3.30;0.60;;;20.10;90.40;;;;;;4944055;29;20036;-83
2022/07/31 02:06:06;;;;;;;6.32;1.33;;;20.10;90.30;;;;;;4955839;29;20565;-81
2022/07/31 02:08:36;;;;;;;0.98;0.55;;;20.10;90.30;;;;;;4956073;29;20070;-84
2022/07/31 02:11:04;;;;;;;1.70;0.55;;;20.00;90.10;;;;;;4956595;29;20034;-86
2022/07/31 02:13:32;;;;;;;1.35;0.43;;;20.00;89.80;;;;;;4954458;29;20031;-85
2022/07/31 02:16:01;;;;;;;6.63;0.50;;;19.80;90.30;;;;;;4942952;29;20024;-87
2022/07/31 02:18:29;;;;;;;1.58;0.65;;;19.40;90.00;;;;;;4943375;29;20031;-86
2022/07/31 02:20:57;;;;;;;1.10;0.77;;;19.30;90.00;;;;;;4944264;29;20121;-78
2022/07/31 02:23:25;;;;;;;4.55;1.10;;;19.10;90.00;;;;;;4924443;29;20050;-80
2022/07/31 02:25:52;;;;;;;2.05;0.70;;;18.90;89.90;;;;;;4945186;29;20564;-84
2022/07/31 02:28:25;;;;;;;3.47;0.95;;;18.80;90.60;;;;;;4938648;29;20907;-80
2022/07/31 02:30:53;;;;;;;2.83;0.88;;;18.80;90.90;;;;;;4948688;29;20027;-78
2022/07/31 02:33:23;;;;;;;2.15;0.57;;;18.90;91.00;;;;;;4948674;28;20490;-83
2022/07/31 02:35:54;;;;;;;1.52;0.90;;;18.70;90.50;;;;;;4942782;29;20042;-85
2022/07/31 02:38:26;;;;;;;1.35;0.70;;;18.40;90.90;;;;;;4944301;29;20043;-81
2022/07/31 02:40:56;;;;;;;2.20;0.70;;;18.40;91.10;;;;;;4944293;28;20924;-81
2022/07/31 02:43:25;;;;;;;2.38;0.40;;;18.30;91.10;;;;;;4941506;29;20023;-87
2022/07/31 02:45:55;;;;;;;1.42;0.50;;;18.20;91.30;;;;;;4947104;29;20035;-83
2022/07/31 02:48:23;;;;;;;1.13;0.60;;;18.10;91.60;;;;;;4951521;29;20035;-83
2022/07/31 02:50:51;;;;;;;1.63;0.70;;;18.10;91.70;;;;;;4942570;29;20040;-83
2022/07/31 02:53:18;;;;;;;1.55;0.80;;;18.20;91.50;;;;;;4952591;29;20019;-82
2022/07/31 02:55:47;;;;;;;1.10;0.70;;;18.20;91.20;;;;;;4950025;28;20324;-82
2022/07/31 02:58:14;;;;;;;2.00;0.82;;;18.30;91.50;;;;;;4947753;29;20024;-79
2022/07/31 03:00:42;;;;;;;4.97;0.60;;;18.40;91.10;;;;;;4949724;29;20534;-81
2022/07/31 03:03:09;;;;;;;1.27;0.63;;;18.20;91.20;;;;;;4945248;28;20031;-84
2022/07/31 03:05:36;;;;;;;1.48;0.57;;;18.20;91.60;;;;;;4944465;28;20398;-82
2022/07/31 03:08:04;;;;;;;2.60;0.70;;;18.00;91.40;;;;;;4944691;29;20028;-81
2022/07/31 03:10:32;;;;;;;4.78;1.02;;;17.90;91.70;;;;;;4943142;28;20122;-83
2022/07/31 03:13:02;;;;;;;1.10;0.75;;;17.80;91.50;;;;;;4942411;28;20054;-84
2022/07/31 03:15:31;;;;;;;2.90;0.55;;;17.70;91.90;;;;;;4945889;29;20042;-81
2022/07/31 03:18:00;;;;;;;2.40;0.47;;;17.60;91.80;;;;;;4950185;29;20090;-84
2022/07/31 03:20:28;;;;;;;1.83;0.73;;;17.50;92.40;;;;;;4952825;28;20041;-81
2022/07/31 03:22:56;;;;;;;1.55;0.70;;;17.50;92.60;;;;;;4950184;29;20107;-81
2022/07/31 03:25:24;;;;;;;1.90;0.80;;;17.50;92.50;;;;;;4946731;29;20390;-81
2022/07/31 03:27:51;;;;;;;1.83;0.77;;;17.60;92.50;;;;;;4950198;29;20062;-81
2022/07/31 03:30:23;;;;;;;1.35;0.70;;;17.60;92.10;;;;;;4951842;29;20043;-83
2022/07/31 03:32:52;;;;;;;2.78;0.73;;;17.60;92.70;;;;;;4946650;29;20031;-79
2022/07/31 03:35:19;;;;;;;3.33;0.63;;;17.60;92.90;;;;;;4951216;28;20077;-81
2022/07/31 03:37:47;;;;;;;3.95;1.23;;;17.60;92.70;;;;;;4942667;29;20027;-82
2022/07/31 03:40:14;;;;;;;1.42;0.65;;;17.60;92.70;;;;;;4947797;29;20438;-82
2022/07/31 03:42:43;;;;;;;4.72;0.75;;;17.70;92.70;;;;;;4948756;29;20035;-82
2022/07/31 03:45:11;;;;;;;1.00;0.88;;;17.70;92.50;;;;;;4946536;29;20058;-81
2022/07/31 03:47:39;;;;;;;2.20;0.70;;;17.80;92.00;;;;;;4950747;28;20031;-84
2022/07/31 03:50:08;;;;;;;2.05;0.80;;;17.90;91.70;;;;;;4944920;29;20059;-82
2022/07/31 03:52:36;;;;;;;1.65;0.70;;;17.90;91.50;;;;;;4943201;28;20027;-82
2022/07/31 03:55:04;;;;;;;2.22;0.60;;;18.00;92.00;;;;;;4950160;29;20066;-82
2022/07/31 03:57:33;;;;;;;1.42;0.47;;;18.10;91.30;;;;;;4948180;28;20038;-80
2022/07/31 04:00:01;;;;;;;1.17;0.68;;;18.10;91.40;;;;;;4951091;28;20517;-79
2022/07/31 04:02:29;;;;;;;5.63;0.70;;;18.10;91.50;;;;;;4952778;29;20032;-81
2022/07/31 04:04:57;;;;;;;2.25;0.70;;;18.00;91.60;;;;;;4949543;28;20039;-80
2022/07/31 04:07:25;;;;;;;1.25;0.50;;;17.90;92.00;;;;;;4949842;29;20394;-82
2022/07/31 04:09:53;;;;;;;3.30;0.75;;;17.90;92.10;;;;;;4951967;28;20054;-80
2022/07/31 04:12:20;;;;;;;1.63;0.50;;;17.80;91.50;;;;;;4947785;29;20099;-79
2022/07/31 04:14:47;;;;;;;2.10;0.90;;;17.70;92.00;;;;;;4942763;28;20604;-82
2022/07/31 04:17:15;;;;;;;2.13;0.90;;;17.60;92.30;;;;;;4948678;29;20063;-82
2022/07/31 04:19:42;;;;;;;1.83;0.80;;;17.60;91.90;;;;;;4950010;29;20390;-81
2022/07/31 04:22:10;;;;;;;1.95;0.70;;;17.50;92.30;;;;;;4950630;28;20046;-83
2022/07/31 04:24:37;;;;;;;1.60;1.25;;;17.60;91.80;;;;;;4949924;28;20038;-85
2022/07/31 04:27:04;;;;;;;1.48;0.80;;;17.50;92.50;;;;;;4948357;28;20031;-85
2022/07/31 04:29:32;;;;;;;1.55;0.60;;;17.50;92.70;;;;;;4945525;29;20129;-83
2022/07/31 04:31:59;;;;;;;0.95;0.40;;;17.50;92.30;;;;;;4950327;29;20031;-80
2022/07/31 04:34:26;;;;;;;3.35;0.80;;;17.50;93.00;;;;;;4934137;29;20051;-81
2022/07/31 04:36:54;;;;;;;1.35;0.50;;;17.40;92.40;;;;;;4950795;29;20343;-84
2022/07/31 04:39:21;;;;;;;1.45;0.80;;;17.40;92.60;;;;;;4949123;28;20323;-87
2022/07/31 04:41:49;;;;;;;2.33;0.80;;;17.40;93.20;;;;;;4954483;28;20030;-84
2022/07/31 04:44:18;;;;;;;6.03;1.60;;;17.40;93.00;;;;;;4944559;29;20517;-84
2022/07/31 04:46:45;;;;;;;2.35;1.02;;;17.30;92.90;;;;;;4951683;29;20110;-83
2022/07/31 04:49:13;;;;;;;1.73;1.10;;;17.30;92.90;;;;;;4949385;29;20040;-86
2022/07/31 04:51:44;;;;;;;4.88;0.80;;;17.30;92.80;;;;;;4939772;29;20173;-80
2022/07/31 04:54:11;;;;;;;3.13;1.08;;;17.20;93.80;;;;;;4951438;28;20028;-83
2022/07/31 04:56:41;;;;;;;1.55;0.75;;;17.20;93.40;;;;;;4954505;28;20383;-81
2022/07/31 04:59:19;;;;;;;3.10;0.70;;;17.10;93.70;;;;;;4954300;29;20486;-82
2022/07/31 05:01:47;;;;;;;3.08;0.50;;;17.10;93.60;;;;;;4952209;29;20092;-80
2022/07/31 05:04:15;;;;;;;1.58;0.73;;;17.00;93.80;;;;;;4950596;29;20378;-79
2022/07/31 05:06:50;;;;;;;0.85;0.55;;;17.00;93.70;;;;;;4949362;28;20019;-83
2022/07/31 05:09:21;;;;;;;4.43;1.08;;;16.90;94.10;;;;;;4950738;29;20035;-81
2022/07/31 05:11:50;;;;;;;3.33;0.90;;;16.90;94.10;;;;;;4926712;29;20035;-75
2022/07/31 05:14:19;;;;;;;2.72;0.70;;;16.80;93.60;;;;;;4947710;28;20035;-75
2022/07/31 05:16:47;;;;;;;2.92;0.60;;;16.80;94.00;;;;;;4951166;28;20764;-76
2022/07/31 05:19:15;;;;;;;1.27;0.50;;;16.80;93.80;;;;;;4944538;28;20394;-75
2022/07/31 05:21:44;;;;;;;2.00;0.50;;;16.80;94.20;;;;;;4950030;29;20032;-75
2022/07/31 05:24:12;;;;;;;3.03;0.47;;;16.70;94.20;;;;;;4946882;29;20034;-73
2022/07/31 05:26:40;;;;;;;2.03;0.57;;;16.70;94.10;;;;;;4954017;28;20031;-76
2022/07/31 05:29:07;;;;;;;5.07;0.82;;;16.80;94.10;;;;;;4943795;28;20525;-74
2022/07/31 05:31:34;;;;;;;3.40;0.50;;;16.70;93.90;;;;;;4947842;29;20027;-76
2022/07/31 05:34:02;;;;;;;1.67;0.82;;;16.70;94.40;;;;;;4952835;29;20039;-74
2022/07/31 05:36:29;;;;;;;3.40;1.02;;;16.70;94.40;;;;;;4947724;29;20039;-77
2022/07/31 05:38:56;;;;;;;3.25;0.50;;;16.60;94.70;;;;;;4947011;29;20027;-75
2022/07/31 05:41:24;;;;;;;1.17;0.75;;;16.60;94.60;;;;;;4951620;28;20038;-75
2022/07/31 05:43:51;;;;;;;1.38;0.50;;;16.50;94.50;;;;;;4952300;28;20054;-75
2022/07/31 05:46:19;;;;;;;1.75;0.70;;;16.60;94.70;;;;;;4954120;28;20122;-76
2022/07/31 05:48:46;;;;;;;1.45;0.70;;;16.50;94.60;;;;;;4952540;29;20043;-76
2022/07/31 05:51:14;;;;;;;1.95;0.98;;;16.60;94.50;;;;;;4951691;28;20031;-76
2022/07/31 05:53:41;;;;;;;3.47;0.95;;;16.50;94.70;;;;;;4948581;29;20039;-75
2022/07/31 05:56:09;;;;;;;2.47;0.93;;;16.50;94.90;;;;;;4955066;29;20264;-74
2022/07/31 05:58:37;;;;;;;1.70;1.13;;;16.40;95.10;;;;;;4951875;29;20062;-74
2022/07/31 06:01:05;;;;;;;2.75;1.48;;;16.40;95.00;;;;;;4952980;28;20490;-75
2022/07/31 06:03:34;;;;;;;5.65;1.20;;;16.40;95.10;;;;;;4942698;28;20046;-74
2022/07/31 06:06:03;;;;;;;1.20;0.80;;;16.30;95.20;;;;;;4952701;29;20502;-76
2022/07/31 06:08:32;;;;;;;2.67;0.88;;;16.30;95.10;;;;;;4948047;29;20039;-73
2022/07/31 06:10:59;;;;;;;3.20;0.98;;;16.20;95.30;;;;;;4949697;29;20590;-75
2022/07/31 06:13:29;;;;;;;3.65;1.50;;;16.30;95.40;;;;;;4950684;29;20118;-74
2022/07/31 06:15:56;;;;;;;3.10;0.88;;;16.20;95.70;;;;;;4947160;29;20410;-75
2022/07/31 06:18:24;;;;;;;2.70;1.08;;;16.10;95.80;;;;;;4942258;29;20107;-77
2022/07/31 06:20:51;;;;;;;1.88;1.08;;;16.10;95.70;;;;;;4950625;29;20149;-76
2022/07/31 06:23:19;;;;;;;4.63;1.40;;;16.10;95.60;;;;;;4952171;29;20037;-78
2022/07/31 06:25:46;;;;;;;1.13;0.70;;;16.10;95.50;;;;;;4952604;28;20134;-76
2022/07/31 06:28:14;;;;;;;2.05;0.80;;;16.00;95.50;;;;;;4945258;29;20040;-75
2022/07/31 06:30:41;;;;;;;2.90;1.20;;;16.10;95.80;;;;;;4936789;29;20067;-75
2022/07/31 06:33:09;;;;;;;3.05;0.75;;;16.00;95.70;;;;;;4949355;29;20052;-75
2022/07/31 06:35:36;;;;;;;5.60;1.27;;;15.90;96.00;;;;;;4941985;29;20043;-75
2022/07/31 06:38:03;;;;;;;2.03;0.80;;;15.90;96.10;;;;;;4947439;29;20023;-76
2022/07/31 06:40:31;;;;;;;2.53;1.65;;;15.90;96.40;;;;;;4953065;29;20075;-76
2022/07/31 06:42:58;;;;;;;1.67;1.13;;;15.80;96.40;;;;;;4949660;29;20031;-76
2022/07/31 06:45:26;;;;;;;2.53;0.95;;;15.80;96.50;;;;;;4943702;28;20110;-75
2022/07/31 06:47:54;;;;;;;3.30;1.27;;;15.80;96.50;;;;;;4949389;29;20041;-77
2022/07/31 06:50:21;;;;;;;1.48;0.77;;;15.80;96.90;;;;;;4947233;28;20118;-77
2022/07/31 06:52:48;;;;;;;3.97;1.48;;;15.80;96.80;;;;;;4950120;29;20128;-75
2022/07/31 06:55:16;;;;;;;3.92;1.90;;;15.70;96.80;;;;;;4951070;29;20073;-76
2022/07/31 06:57:44;;;;;;;4.05;1.55;;;15.70;96.90;;;;;;4951451;29;20142;-76
2022/07/31 07:00:12;;;;;;;3.38;1.45;;;15.60;97.10;;;;;;4949421;29;20027;-77
2022/07/31 07:02:40;;;;;;;4.30;1.48;;;15.60;96.90;;;;;;4935932;29;20038;-75
2022/07/31 07:05:07;;;;;;;3.22;1.10;;;15.60;97.10;;;;;;4949813;29;20043;-76
2022/07/31 07:07:35;;;;;;;2.63;1.20;;;15.50;97.00;;;;;;4952608;28;20114;-75
2022/07/31 07:10:03;;;;;;;5.45;1.40;;;15.50;97.10;;;;;;4948503;28;20538;-76
2022/07/31 07:12:30;;;;;;;3.53;1.75;;;15.50;97.00;;;;;;4941625;29;20058;-76
2022/07/31 07:14:58;;;;;;;2.58;1.48;;;15.50;97.00;;;;;;4949458;28;20504;-76
2022/07/31 07:17:25;;;;;;;3.92;1.30;;;15.50;97.20;;;;;;4948594;28;20394;-76
2022/07/31 07:19:54;;;;;;;5.75;1.70;;;15.50;97.20;;;;;;4938632;29;20148;-76
2022/07/31 07:22:21;;;;;;;3.80;2.20;;;15.40;96.90;;;;;;4949256;28;20035;-77
2022/07/31 07:24:48;;;;;;;4.15;2.10;;;15.50;97.10;;;;;;4940482;28;20130;-75
2022/07/31 07:27:16;;;;;;;3.45;1.85;;;15.40;97.10;;;;;;4950147;28;20252;-78
2022/07/31 07:29:43;;;;;;;3.50;1.77;;;15.40;97.20;;;;;;4937612;29;20043;-77
2022/07/31 07:32:12;;;;;;;4.70;2.83;;;15.30;97.20;;;;;;4951183;29;20118;-77
2022/07/31 07:34:39;;;;;;;6.55;2.25;;;15.20;97.20;;;;;;4944379;29;20133;-77
2022/07/31 07:37:07;;;;;;;5.50;2.30;;;15.20;97.50;;;;;;4952988;29;20090;-77
2022/07/31 07:39:34;;;;;;;6.07;1.90;;;15.20;97.40;;;;;;4950367;29;20034;-77
2022/07/31 07:42:01;;;;;;;4.60;1.80;;;15.10;97.20;;;;;;4950995;29;20106;-76
2022/07/31 07:44:32;;;;;;;4.85;2.38;;;15.10;97.30;;;;;;4947224;29;20051;-74
2022/07/31 07:46:59;;;;;;;2.83;1.30;;;15.00;97.30;;;;;;4941936;29;20047;-74
2022/07/31 07:49:26;;;;;;;8.30;3.72;;;15.00;97.20;;;;;;4939461;28;20153;-74
2022/07/31 07:51:54;;;;;;;9.80;3.97;;;15.00;97.00;;;;;;4937858;28;20031;-75
2022/07/31 07:54:21;;;;;;;5.45;2.42;;;15.00;97.30;;;;;;4935274;28;20371;-73
2022/07/31 07:56:50;;;;;;;3.95;2.83;;;15.00;97.70;;;;;;4946833;28;20047;-76
2022/07/31 07:59:20;;;;;;;3.33;2.03;;;15.00;98.30;;;;;;4939798;28;20041;-76
2022/07/31 08:01:48;;;;;;;4.15;2.28;;;15.00;98.90;;;;;;4938383;28;20027;-76
2022/07/31 08:04:15;;;;;;;3.72;2.08;;;14.80;99.20;;;;;;4939083;29;20105;-74
2022/07/31 08:06:42;;;;;;;6.47;2.00;;;14.80;99.60;;;;;;4940098;29;20054;-76
2022/07/31 08:09:10;;;;;;;4.60;2.67;;;14.60;99.40;;;;;;4939743;28;20047;-75
2022/07/31 08:11:37;;;;;;;2.35;1.60;;;14.50;99.10;;;;;;4941412;28;20035;-75
2022/07/31 08:14:05;;;;;;;7.85;2.05;;;14.50;99.20;;;;;;4933673;28;20039;-75
2022/07/31 08:16:32;;;;;;;8.95;2.75;;;14.50;99.40;;;;;;4940487;29;20123;-75
2022/07/31 08:19:00;;;;;;;5.38;1.98;;;14.50;99.20;;;;;;4941748;29;20393;-77
2022/07/31 08:21:27;;;;;;;6.00;2.10;;;14.40;98.90;;;;;;4942225;28;20074;-75
2022/07/31 08:23:54;;;;;;;5.97;2.85;;;14.50;98.90;;;;;;4939435;29;20038;-76
2022/07/31 08:26:22;;;;;;;4.78;2.40;;;14.60;98.80;;;;;;4940148;29;20050;-74
2022/07/31 08:28:49;;;;;;;3.78;2.65;;;14.50;98.70;;;;;;4946412;28;20087;-74
2022/07/31 08:31:20;;;;;;;4.47;2.35;;;14.50;98.50;;;;;;4941294;29;20031;-74
2022/07/31 08:33:48;;;;;;;2.72;2.03;;;14.50;98.50;;;;;;4939857;29;20051;-75
2022/07/31 08:36:16;;;;;;;6.00;2.55;;;14.50;98.30;;;;;;4943503;29;20031;-76
2022/07/31 08:38:43;;;;;;;6.43;2.42;;;14.50;98.50;;;;;;4939322;29;20031;-75
2022/07/31 08:41:13;;;;;;;6.60;2.10;;;14.50;98.30;;;;;;4946282;29;20059;-78
2022/07/31 08:43:41;;;;;;;7.47;2.10;;;14.40;98.20;;;;;;4943740;28;20198;-76
2022/07/31 08:46:10;;;;;;;5.55;2.80;;;14.40;98.20;;;;;;4942588;29;20037;-76
2022/07/31 08:48:40;;;;;;;4.90;3.17;;;14.40;98.00;;;;;;4942185;28;20359;-76
2022/07/31 08:51:12;;;;;;;4.43;2.08;;;14.40;98.00;;;;;;4939933;29;20114;-77
2022/07/31 08:53:41;;;;;;;4.30;1.88;;;14.40;97.80;;;;;;4942131;29;20027;-75
2022/07/31 08:56:10;;;;;;;5.65;1.67;;;14.30;97.70;;;;;;4940214;28;20031;-78
2022/07/31 08:58:37;;;;;;;3.55;1.85;;;14.40;97.70;;;;;;4939527;29;20058;-76
2022/07/31 09:01:05;;;;;;;3.10;1.52;;;14.30;97.80;;;;;;4941231;29;20038;-78
2022/07/31 09:03:34;;;;;;;3.88;1.25;;;14.30;97.60;;;;;;4938807;29;20055;-77
2022/07/31 09:06:03;;;;;;;5.50;2.38;;;14.30;97.90;;;;;;4944421;29;20036;-77
2022/07/31 09:08:34;;;;;;;2.28;1.13;;;14.30;97.90;;;;;;4940662;28;20046;-80
2022/07/31 09:11:04;;;;;;;2.58;1.00;;;14.30;98.10;;;;;;4938382;29;20031;-77
2022/07/31 09:13:33;;;;;;;3.30;1.67;;;14.20;98.00;;;;;;4940617;29;20367;-77
2022/07/31 09:16:02;;;;;;;2.95;1.00;;;14.20;98.10;;;;;;4943167;28;20122;-77
2022/07/31 09:18:29;;;;;;;3.33;1.65;;;14.20;98.20;;;;;;4943462;28;20035;-77
2022/07/31 09:21:02;;;;;;;6.57;1.65;;;14.10;98.30;;;;;;4939087;28;20441;-76
2022/07/31 09:23:31;;;;;;;7.13;1.77;;;14.10;98.50;;;;;;4937673;28;20031;-77
2022/07/31 09:26:09;;;;;;;3.20;1.67;;;14.10;98.40;;;;;;4934970;28;20027;-78
2022/07/31 09:28:42;;;;;;;7.05;2.17;;;14.10;98.50;;;;;;4941502;28;20035;-77
2022/07/31 09:31:12;;;;;;;3.83;1.83;;;14.10;98.10;;;;;;4937681;28;20430;-75
2022/07/31 09:33:43;;;;;;;3.25;2.25;;;14.10;98.40;;;;;;4939643;28;20075;-76
2022/07/31 09:36:11;;;;;;;3.92;2.50;;;14.10;98.40;;;;;;4935205;28;20063;-76
2022/07/31 09:38:41;;;;;;;4.95;2.50;;;14.00;98.40;;;;;;4940668;28;20035;-77
2022/07/31 09:41:10;;;;;;;5.70;2.70;;;14.10;98.40;;;;;;4940069;28;20082;-76
2022/07/31 09:43:38;;;;;;;6.22;4.20;;;14.10;98.30;;;;;;4939685;28;20035;-77
2022/07/31 09:46:07;;;;;;;7.20;3.65;;;14.10;98.30;;;;;;4937505;28;21675;-77
2022/07/31 09:48:36;;;;;;;6.05;3.80;;;14.00;98.40;;;;;;4946135;28;20050;-75
2022/07/31 09:51:06;;;;;;;5.45;3.53;;;14.10;98.40;;;;;;4947463;28;20027;-76
2022/07/31 09:53:51;;;;;;;8.43;3.60;;;14.10;98.30;;;;;;4944873;28;20027;-76
2022/07/31 09:56:31;;;;;;;7.78;4.35;;;14.10;98.40;;;;;;4949695;28;20097;-75
2022/07/31 09:58:59;;;;;;;5.20;3.90;;;14.00;98.50;;;;;;4957352;28;20462;-76
2022/07/31 10:01:27;;;;;;;7.00;3.03;;;14.00;98.30;;;;;;4962273;28;20062;-75
2022/07/31 10:03:59;;;;;;;5.50;2.60;;;13.90;98.40;;;;;;4951898;28;20408;-77
2022/07/31 10:06:30;;;;;;;4.78;2.50;;;13.80;98.60;;;;;;4947805;28;20039;-77
2022/07/31 10:09:01;;;;;;;3.17;2.22;;;13.80;98.80;;;;;;4946526;28;20078;-75
2022/07/31 10:11:30;;;;;;;5.72;2.15;;;13.80;99.10;;;;;;4939201;28;20050;-77
2022/07/31 10:14:02;;;;;;;6.45;2.10;;;13.70;98.90;;;;;;4939599;28;20061;-77
2022/07/31 10:16:35;;;;;;;5.57;2.13;;;13.70;98.90;;;;;;4938519;28;20502;-77
2022/07/31 10:19:10;;;;;;;3.13;1.70;;;13.70;98.90;;;;;;4941201;28;20129;-76
2022/07/31 10:21:46;;;;;;;4.85;1.58;;;13.80;99.10;;;;;;4949820;28;20081;-76
2022/07/31 10:24:15;;;;;;;2.83;1.70;;;13.70;99.20;;;;;;4938904;28;20042;-78
2022/07/31 10:26:42;;;;;;;2.97;1.52;;;13.70;99.10;;;;;;4944095;28;20027;-76
2022/07/31 10:29:10;;;;;;;1.92;1.10;;;13.70;99.20;;;;;;4938930;28;20031;-78
2022/07/31 10:31:37;;;;;;;2.33;1.23;;;13.70;99.20;;;;;;4944940;28;20054;-75
2022/07/31 10:34:05;;;;;;;2.22;1.52;;;13.60;99.10;;;;;;4938989;28;20130;-76
2022/07/31 10:36:43;;;;;;;4.63;1.83;;;13.60;99.30;;;;;;4938799;28;20521;-78
2022/07/31 10:39:30;;;;;;;2.95;1.42;;;13.60;99.40;;;;;;4937618;28;20376;-76
2022/07/31 10:42:35;;;;;;;2.58;1.50;;;13.50;99.50;;;;;;4937782;28;20030;-76
2022/07/31 10:45:12;;;;;;;4.07;2.85;;;13.50;99.50;;;;;;4945890;28;20497;-75
2022/07/31 10:47:40;;;;;;;6.93;4.22;;;13.50;99.40;;;;;;4937987;28;20066;-75
2022/07/31 10:50:19;;;;;;;4.55;2.70;;;13.50;99.50;;;;;;4939979;28;20135;-76
2022/07/31 10:52:46;;;;;;;7.60;2.72;;;13.40;99.50;;;;;;4937797;28;20050;-75
2022/07/31 10:55:23;;;;;;;5.25;1.80;;;13.40;99.70;;;;;;4938850;28;20027;-75
2022/07/31 10:57:51;;;;;;;3.83;1.75;;;13.50;99.70;;;;;;4938779;28;20026;-75
2022/07/31 11:00:21;;;;;;;5.18;1.30;;;13.50;99.80;;;;;;4945378;28;20089;-73
2022/07/31 11:02:49;;;;;;;3.60;1.50;;;13.40;99.90;;;;;;4936766;28;20034;-75
2022/07/31 11:05:26;;;;;;;2.50;1.35;;;13.40;99.90;;;;;;4943347;28;20548;-75
2022/07/31 11:08:06;;;;;;;6.80;1.58;;;13.40;99.90;;;;;;4939046;28;20050;-76
2022/07/31 11:10:34;;;;;;;4.28;1.55;;;13.30;99.70;;;;;;4942789;28;20044;-74
2022/07/31 11:13:06;;;;;;;5.10;1.98;;;13.30;99.90;;;;;;4937058;28;20132;-74
2022/07/31 11:15:36;;;;;;;5.30;2.05;;;13.30;99.90;;;;;;4937375;28;20089;-75
2022/07/31 11:18:17;;;;;;;2.42;1.05;;;13.30;99.90;;;;;;4939940;28;20123;-75
2022/07/31 11:20:57;;;;;;;3.55;1.30;;;13.20;99.90;;;;;;4934928;28;20048;-76
2022/07/31 11:23:29;;;;;;;3.42;1.65;;;13.10;99.90;;;;;;4939516;28;20123;-76
2022/07/31 11:26:02;;;;;;;5.43;1.42;;;13.10;99.90;;;;;;4938798;28;20449;-76
2022/07/31 11:28:30;;;;;;;4.57;1.95;;;13.10;99.90;;;;;;4937192;28;20350;-77
2022/07/31 11:31:03;;;;;;;6.55;2.67;;;13.10;99.90;;;;;;4939187;28;20490;-76
2022/07/31 11:33:42;;;;;;;2.10;1.23;;;13.10;99.90;;;;;;4936631;28;20439;-76
2022/07/31 11:36:11;;;;;;;2.60;2.10;;;13.00;99.90;;;;;;4935656;28;20031;-75
2022/07/31 11:38:50;;;;;;;2.78;1.52;;;13.00;99.90;;;;;;4935011;28;20134;-76
2022/07/31 11:41:22;;;;;;;5.72;1.30;;;12.90;99.90;;;;;;4937364;28;20087;-77
2022/07/31 11:43:51;;;;;;;3.35;1.20;;;12.90;99.90;;;;;;4937795;28;20023;-76
2022/07/31 11:46:30;;;;;;;3.38;1.42;;;12.90;99.90;;;;;;4937995;28;20034;-77
2022/07/31 11:48:59;;;;;;;2.83;1.25;;;12.80;99.90;;;;;;4939653;28;20054;-75
2022/07/31 11:51:27;;;;;;;2.92;1.65;;;12.80;99.90;;;;;;4939954;28;20043;-76
2022/07/31 11:53:56;;;;;;;4.97;2.15;;;12.80;99.90;;;;;;4936999;28;21883;-77
2022/07/31 11:56:25;;;;;;;2.20;1.50;;;12.70;99.90;;;;;;4937680;28;20062;-78
2022/07/31 11:58:55;;;;;;;4.00;2.08;;;12.70;99.90;;;;;;4936326;28;20038;-74
2022/07/31 12:01:28;;;;;;;6.68;2.85;;;12.70;99.90;;;;;;4937134;28;20063;-77
2022/07/31 12:03:57;;;;;;;4.07;1.70;;;12.60;99.90;;;;;;4938779;28;20482;-77
2022/07/31 12:06:24;;;;;;;3.38;2.03;;;12.60;99.90;;;;;;4955479;28;20031;-78
2022/07/31 12:08:52;;;;;;;5.03;1.77;;;12.60;99.90;;;;;;4952818;28;20043;-76
2022/07/31 12:11:20;;;;;;;3.33;1.73;;;12.60;99.90;;;;;;4947075;28;20046;-75
2022/07/31 12:13:48;;;;;;;2.90;1.23;;;12.50;99.90;;;;;;4954443;28;20390;-77
2022/07/31 12:16:20;;;;;;;3.38;2.75;;;12.50;99.90;;;;;;4960375;28;20039;-76
2022/07/31 12:18:58;;;;;;;3.10;1.85;;;12.50;99.90;;;;;;4942011;28;20489;-74
2022/07/31 12:21:39;;;;;;;3.90;1.25;;;12.50;99.90;;;;;;4942837;28;20063;-75
2022/07/31 12:24:14;;;;;;;5.18;1.10;;;12.50;99.90;;;;;;4941309;28;20035;-75
2022/07/31 12:26:53;;;;;;;5.13;1.85;;;12.30;99.90;;;;;;4945233;28;20354;-75
2022/07/31 12:29:34;;;;;;;2.92;1.27;;;12.30;99.90;;;;;;4949037;28;20081;-75
2022/07/31 12:32:01;;;;;;;4.38;1.38;;;12.30;99.90;;;;;;4943298;28;20039;-75
2022/07/31 12:34:38;;;;;;;4.85;1.30;;;12.20;99.90;;;;;;4939610;28;20051;-74
2022/07/31 12:37:08;;;;;;;6.43;1.50;;;12.20;99.90;;;;;;4943517;28;20046;-74
2022/07/31 12:39:38;;;;;;;5.95;1.20;;;12.10;99.90;;;;;;4942961;28;20066;-75
2022/07/31 12:42:06;;;;;;;2.95;1.20;;;12.10;99.90;;;;;;4939135;28;20054;-75
2022/07/31 12:44:34;;;;;;;2.78;1.23;;;12.10;99.90;;;;;;4934579;28;20077;-75
2022/07/31 12:47:02;;;;;;;2.47;1.40;;;12.00;99.90;;;;;;4936370;28;20098;-74
2022/07/31 12:49:29;;;;;;;2.15;1.27;;;12.00;99.90;;;;;;4926967;28;20039;-74
2022/07/31 12:51:57;;;;;;;3.53;1.30;;;11.90;99.90;;;;;;4955088;28;20490;-76
2022/07/31 12:54:25;;;;;;;2.40;1.48;;;11.90;99.90;;;;;;4943836;28;20039;-75
2022/07/31 12:56:52;;;;;;;6.25;1.77;;;11.90;99.90;;;;;;4941055;28;20431;-75
2022/07/31 12:59:20;;;;;;;5.18;2.08;;;11.90;99.90;;;;;;4942427;28;20427;-75
2022/07/31 13:01:47;;;;;;;3.38;1.00;;;11.90;99.90;;;;;;4940679;28;20050;-76